Pinedale, WY

1:38 PM MDT on June 25, 2017 (GMT -0600)
Wenz | | Change Station
Active Advisory: Areal Flood Warning

Elev 7087 ft 42.80 °N, 109.81 °W | Updated 23 minutes ago

Clear
Clear
70 °F
Feels Like 70 °F
N
9
Wind Variable Wind from West
Gusts 16 mph

Today
High -- | Low -- °F
--% Chance of Precip.
Yesterday
High -- | Low -- °F
Precip. -- in
Pressure 30.43 in
Visibility 10.0 miles
Clouds Clear
Dew Point 32 °F
Humidity 25%
Rainfall 0.00 in
Snow Depth Not available.
5:42 AM 9:01 PM
Waxing Crescent, 4% visible
METAR KPNA 251915Z AUTO 28008G14KT 10SM CLR 21/00 A3043 RMK AO2
Pressure 30.43 in
Visibility 10.0 miles
Clouds Clear
Dew Point 32 °F
Humidity 25%
Rainfall 0.00 in
Snow Depth Not available.
5:42 AM 9:01 PM
Waxing Crescent, 4% visible
METAR KPNA 251915Z AUTO 28008G14KT 10SM CLR 21/00 A3043 RMK AO2

Get Your Daily Forecast Email!

Thanks for signing up!

Be on the lookout for a verification email in your inbox.

You'll start receiving severe weather alerts in your inbox..

×

10-Day Weather Forecast

Almanac

Astronomy

Jun. 25, 2017 Rise Set
Actual Time
Civil Twilight
Nautical Twilight
Astronomical Twilight
Moon
Length of Visible Light
Length of Day
Tomorrow will be .
, % of the Moon is Illuminated

Today's Extremes

State Highs State Lows

Community

WunderPhotos

Category 6

Welcome to Category 6. This is the collective home for Weather Underground's featured writeups by Dr. Jeff Masters (right), Bob Henson (left), Chris Burt, and other regular contributors.

Nearby

Air Quality

  Air Quality AQ Index Pollutant
Not available.

Snow Depth

Station Depth Elevation

Earthquake Activity

City Distance Mag. Time & Date
Minimum magnitude displayed is 2.5.

Coastal Water Temperatures

Place Temperature

Stations

Nearby Weather Stations

Station Location Temp. Windchill Dew Point Humidity Wind Precip. Elev Updated Type
                   

Watches & Warnings

Areal Flood Warning
Issued: 5:14 PM MDT Jun. 24, 2017 – National Weather Service

The National Weather Service in Riverton has issued a

* Flood Warning for...
snowmelt in...
southwestern Sublette County in west central Wyoming...
east central Lincoln County in west central Wyoming...

* until 500 PM MDT Sunday

* at 500 PM MDT, the Green River near La Barge was holding steady
around 10.0 feet. Flood stage is 9.0 feet. The river level will
remain between 9.8 and 10.0 feet through Sunday afternoon.
Widespread minor lowland flooding is likely near the river. Area
roads that could be impacted by the flood waters include Lincoln
County Road 318 near La Barge and whalen Road.

Precautionary/preparedness actions...

Turn around, don't drown when encountering flooded roads. Most flood
deaths occur in vehicles. Be especially cautious at night when it is
harder to recognize the dangers of flooding.


Lat... Lon 4246 11011 4246 11006 4195 11005 4197 11016
      4230 11025


AR